Time;durP1;ratioP1;P1;durP2;ratioP2;P2;SDS_P1;SDS_P2;PMS_P1;PMS_P2;Temp;Humidity;BMP_temperature;BMP_pressure;BME280_temperature;BME280_humidity;BME280_pressure;Samples;Min_cycle;Max_cycle;Signal;HPM_P1;HPM_P2
2022/09/26 00:01:41;;;;;;;;;0.00;0.00;;;;;;;;5105219;27;61835;-80
2022/09/26 00:04:10;;;;;;;;;0.00;0.00;;;;;;;;5103165;27;63544;-80
2022/09/26 00:06:35;;;;;;;;;1.50;0.00;;;;;;;;5104012;27;61681;-80
2022/09/26 00:09:00;;;;;;;;;1.00;1.00;;;;;;;;5104798;27;61765;-80
2022/09/26 00:11:28;;;;;;;;;0.75;0.50;;;;;;;;5104752;27;61803;-80
2022/09/26 00:13:55;;;;;;;;;0.00;0.00;;;;;;;;5104162;27;61941;-80
2022/09/26 00:16:21;;;;;;;;;3.00;0.25;;;;;;;;5103117;27;61789;-80
2022/09/26 00:18:50;;;;;;;;;1.00;0.00;;;;;;;;5104657;27;61764;-80
2022/09/26 00:21:16;;;;;;;;;2.00;1.00;;;;;;;;5104901;27;61855;-80
2022/09/26 00:23:41;;;;;;;;;0.50;0.25;;;;;;;;5103665;27;61966;-79
2022/09/26 00:26:07;;;;;;;;;1.00;1.00;;;;;;;;5104288;27;62338;-79
2022/09/26 00:28:33;;;;;;;;;0.00;0.00;;;;;;;;5104263;27;61793;-80
2022/09/26 00:31:06;;;;;;;;;0.00;0.00;;;;;;;;5104910;27;61778;-79
2022/09/26 00:33:31;;;;;;;;;0.00;0.00;;;;;;;;5103579;27;62142;-79
2022/09/26 00:35:56;;;;;;;;;1.00;1.00;;;;;;;;5103199;27;61761;-79
2022/09/26 00:38:22;;;;;;;;;1.25;1.00;;;;;;;;5104017;27;62190;-79
2022/09/26 00:40:48;;;;;;;;;0.00;0.00;;;;;;;;5103376;27;62559;-79
2022/09/26 00:43:25;;;;;;;;;1.50;0.75;;;;;;;;5104008;27;62178;-79
2022/09/26 00:45:51;;;;;;;;;0.75;0.00;;;;;;;;5104148;27;61938;-80
2022/09/26 00:48:17;;;;;;;;;0.00;0.00;;;;;;;;5104045;27;62221;-80
2022/09/26 00:50:42;;;;;;;;;0.00;0.00;;;;;;;;5104487;27;62014;-80
2022/09/26 00:53:13;;;;;;;;;1.25;0.50;;;;;;;;5102030;27;62762;-80
2022/09/26 00:55:42;;;;;;;;;1.00;1.00;;;;;;;;5103827;27;61757;-80
2022/09/26 00:58:11;;;;;;;;;0.25;0.25;;;;;;;;5103813;27;61929;-80
2022/09/26 01:00:38;;;;;;;;;1.75;1.00;;;;;;;;5103821;27;61683;-79
2022/09/26 01:03:03;;;;;;;;;0.75;0.75;;;;;;;;5103446;27;63852;-80
2022/09/26 01:05:30;;;;;;;;;3.00;1.00;;;;;;;;5103516;27;62019;-80
2022/09/26 01:07:56;;;;;;;;;0.00;0.00;;;;;;;;5103957;27;62207;-80
2022/09/26 01:10:23;;;;;;;;;0.00;0.00;;;;;;;;5102826;27;61951;-80
2022/09/26 01:12:48;;;;;;;;;0.00;0.00;;;;;;;;5103167;27;62708;-80
2022/09/26 01:15:14;;;;;;;;;1.50;0.50;;;;;;;;5103363;27;61675;-80
2022/09/26 01:17:40;;;;;;;;;1.00;1.00;;;;;;;;5102200;27;62155;-80
2022/09/26 01:20:21;;;;;;;;;0.00;0.00;;;;;;;;5102593;27;61812;-80
2022/09/26 01:22:58;;;;;;;;;2.00;0.50;;;;;;;;5102938;27;61963;-80
2022/09/26 01:26:02;;;;;;;;;1.00;1.00;;;;;;;;5103600;27;61729;-80
2022/09/26 01:28:35;;;;;;;;;1.00;1.00;;;;;;;;5080520;28;62071;-79
2022/09/26 01:31:12;;;;;;;;;1.00;1.00;;;;;;;;5080821;27;61952;-80
2022/09/26 01:33:48;;;;;;;;;3.00;1.00;;;;;;;;5079956;28;63034;-80
2022/09/26 01:36:32;;;;;;;;;2.00;0.00;;;;;;;;5080440;28;62144;-80
2022/09/26 01:39:12;;;;;;;;;0.00;0.00;;;;;;;;5080492;28;62071;-80
2022/09/26 01:41:37;;;;;;;;;0.00;0.00;;;;;;;;5080532;27;61822;-80
2022/09/26 01:44:14;;;;;;;;;1.25;1.00;;;;;;;;5079375;28;62941;-80
2022/09/26 01:46:50;;;;;;;;;0.00;0.00;;;;;;;;5080383;28;61834;-80
2022/09/26 01:49:23;;;;;;;;;0.75;0.50;;;;;;;;5080251;28;61901;-80
2022/09/26 01:51:51;;;;;;;;;1.00;1.00;;;;;;;;5080381;28;62173;-80
2022/09/26 01:54:23;;;;;;;;;0.00;0.00;;;;;;;;5079558;28;62129;-80
2022/09/26 01:56:50;;;;;;;;;1.00;1.00;;;;;;;;5079462;28;61797;-80
2022/09/26 01:59:24;;;;;;;;;1.00;1.00;;;;;;;;5091323;27;61833;-80
2022/09/26 02:01:54;;;;;;;;;3.00;1.00;;;;;;;;5101946;27;62113;-80
2022/09/26 02:04:22;;;;;;;;;0.00;0.00;;;;;;;;5102262;27;63185;-80
2022/09/26 02:06:55;;;;;;;;;0.00;0.00;;;;;;;;5102711;27;61909;-80
2022/09/26 02:09:24;;;;;;;;;1.00;1.00;;;;;;;;5103173;27;61848;-80
2022/09/26 02:11:52;;;;;;;;;0.00;0.00;;;;;;;;5103217;27;61896;-80
2022/09/26 02:14:20;;;;;;;;;0.00;0.00;;;;;;;;5102244;27;61993;-80
2022/09/26 02:16:49;;;;;;;;;0.25;0.25;;;;;;;;5102661;27;61706;-80
2022/09/26 02:19:21;;;;;;;;;1.00;0.00;;;;;;;;5102923;27;61756;-80
2022/09/26 02:21:46;;;;;;;;;1.00;1.00;;;;;;;;5102948;27;61955;-80
2022/09/26 02:24:12;;;;;;;;;0.00;0.00;;;;;;;;5102223;27;62907;-78
2022/09/26 02:26:37;;;;;;;;;2.00;0.75;;;;;;;;5102886;27;61877;-78
2022/09/26 02:29:04;;;;;;;;;0.00;0.00;;;;;;;;5103790;27;62134;-78
2022/09/26 02:31:34;;;;;;;;;0.00;0.00;;;;;;;;5107033;27;62004;-78
2022/09/26 02:34:01;;;;;;;;;1.00;0.00;;;;;;;;5105518;27;61866;-78
2022/09/26 02:36:27;;;;;;;;;1.00;0.00;;;;;;;;5106413;27;62107;-78
2022/09/26 02:38:52;;;;;;;;;0.00;0.00;;;;;;;;5104742;27;61961;-78
2022/09/26 02:41:28;;;;;;;;;0.75;0.75;;;;;;;;5106592;27;61800;-78
2022/09/26 02:43:59;;;;;;;;;1.00;1.00;;;;;;;;5104988;27;62688;-78
2022/09/26 02:46:37;;;;;;;;;1.00;0.00;;;;;;;;5106127;27;61860;-78
2022/09/26 02:49:20;;;;;;;;;0.00;0.00;;;;;;;;5105706;27;62403;-78
2022/09/26 02:52:26;;;;;;;;;5.00;0.00;;;;;;;;5106140;27;62103;-78
2022/09/26 02:55:07;;;;;;;;;0.00;0.00;;;;;;;;5082079;27;62807;-78
2022/09/26 02:58:04;;;;;;;;;0.50;0.50;;;;;;;;5082525;28;62101;-78
2022/09/26 03:00:45;;;;;;;;;0.00;0.00;;;;;;;;5021928;28;62290;-78
2022/09/26 03:03:13;;;;;;;;;2.25;0.25;;;;;;;;5022558;28;61984;-78
2022/09/26 03:05:42;;;;;;;;;0.00;0.00;;;;;;;;5022071;28;63031;-78
2022/09/26 03:08:09;;;;;;;;;0.25;0.25;;;;;;;;5022062;28;62061;-78
2022/09/26 03:10:36;;;;;;;;;2.25;0.00;;;;;;;;5022691;28;62050;-78
2022/09/26 03:13:05;;;;;;;;;1.00;1.00;;;;;;;;5022288;28;61869;-78
2022/09/26 03:15:33;;;;;;;;;2.00;1.00;;;;;;;;5021704;28;63283;-78
2022/09/26 03:18:00;;;;;;;;;0.00;0.00;;;;;;;;5021763;28;61853;-78
2022/09/26 03:20:25;;;;;;;;;0.25;0.25;;;;;;;;5005779;28;62044;-78
2022/09/26 03:22:50;;;;;;;;;0.00;0.00;;;;;;;;5022298;28;62195;-78
2022/09/26 03:25:18;;;;;;;;;0.00;0.00;;;;;;;;5028840;28;61791;-78
2022/09/26 03:27:44;;;;;;;;;0.00;0.00;;;;;;;;5042192;28;62057;-78
2022/09/26 03:30:11;;;;;;;;;2.75;1.00;;;;;;;;5041562;28;62088;-78
2022/09/26 03:32:36;;;;;;;;;1.00;0.00;;;;;;;;5042550;28;61795;-78
2022/09/26 03:35:02;;;;;;;;;0.00;0.00;;;;;;;;5041284;28;61962;-78
2022/09/26 03:37:28;;;;;;;;;0.00;0.00;;;;;;;;5073946;28;61844;-78
2022/09/26 03:39:53;;;;;;;;;0.00;0.00;;;;;;;;5084178;28;62117;-78
2022/09/26 03:42:18;;;;;;;;;0.00;0.00;;;;;;;;5084724;28;61796;-78
2022/09/26 03:44:43;;;;;;;;;0.00;0.00;;;;;;;;5083905;27;62150;-78
2022/09/26 03:47:09;;;;;;;;;0.75;0.00;;;;;;;;5083193;28;62101;-78
2022/09/26 03:49:35;;;;;;;;;1.00;0.00;;;;;;;;5085003;28;61863;-78
2022/09/26 03:52:00;;;;;;;;;0.00;0.00;;;;;;;;5084834;28;61763;-78
2022/09/26 03:54:25;;;;;;;;;0.00;0.00;;;;;;;;5083982;27;61949;-78
2022/09/26 03:56:51;;;;;;;;;0.50;0.50;;;;;;;;5082972;28;61968;-78
2022/09/26 03:59:16;;;;;;;;;0.00;0.00;;;;;;;;5090460;27;62227;-78
2022/09/26 04:01:42;;;;;;;;;0.50;0.50;;;;;;;;5105404;27;61982;-78
2022/09/26 04:04:07;;;;;;;;;1.00;1.00;;;;;;;;5104075;27;62960;-78
2022/09/26 04:06:32;;;;;;;;;1.00;0.00;;;;;;;;5105037;27;62240;-78
2022/09/26 04:08:57;;;;;;;;;0.00;0.00;;;;;;;;5105051;27;62222;-78
2022/09/26 04:11:23;;;;;;;;;0.50;0.00;;;;;;;;5105260;27;61835;-78
2022/09/26 04:13:49;;;;;;;;;0.00;0.00;;;;;;;;5103818;27;63260;-78
2022/09/26 04:16:14;;;;;;;;;1.00;0.00;;;;;;;;5104600;27;61618;-78
2022/09/26 04:18:39;;;;;;;;;0.00;0.00;;;;;;;;5104762;27;61717;-78
2022/09/26 04:21:09;;;;;;;;;0.50;0.50;;;;;;;;5104854;27;62161;-78
2022/09/26 04:23:36;;;;;;;;;1.00;0.00;;;;;;;;5104036;27;62106;-78
2022/09/26 04:26:02;;;;;;;;;0.00;0.00;;;;;;;;5104118;27;61773;-79
2022/09/26 04:28:29;;;;;;;;;0.00;0.00;;;;;;;;5104266;27;61732;-78
2022/09/26 04:31:05;;;;;;;;;0.75;0.00;;;;;;;;5104469;27;61704;-78
2022/09/26 04:33:32;;;;;;;;;1.00;0.00;;;;;;;;5103917;27;61814;-78
2022/09/26 04:35:58;;;;;;;;;0.00;0.00;;;;;;;;5104596;27;61847;-78
2022/09/26 04:38:25;;;;;;;;;0.00;0.00;;;;;;;;5104288;27;62114;-78
2022/09/26 04:40:50;;;;;;;;;1.00;0.50;;;;;;;;5104659;27;62068;-78
2022/09/26 04:43:16;;;;;;;;;0.25;0.00;;;;;;;;5103418;27;61951;-78
2022/09/26 04:45:42;;;;;;;;;0.00;0.00;;;;;;;;5104056;27;61953;-78
2022/09/26 04:48:08;;;;;;;;;0.50;0.50;;;;;;;;5104185;27;61919;-78
2022/09/26 04:50:34;;;;;;;;;1.00;0.00;;;;;;;;5104673;27;61702;-78
2022/09/26 04:53:00;;;;;;;;;1.00;0.00;;;;;;;;5103033;27;62147;-79
2022/09/26 04:55:25;;;;;;;;;0.00;0.00;;;;;;;;5104177;27;61741;-78
2022/09/26 04:57:50;;;;;;;;;0.00;0.00;;;;;;;;5102264;27;61884;-79
2022/09/26 05:00:17;;;;;;;;;0.00;0.00;;;;;;;;5101863;27;62085;-78
2022/09/26 05:02:44;;;;;;;;;0.00;0.00;;;;;;;;5103373;27;61857;-78
2022/09/26 05:05:10;;;;;;;;;2.00;0.00;;;;;;;;5103548;27;61974;-78
2022/09/26 05:07:38;;;;;;;;;0.00;0.00;;;;;;;;5104809;27;61726;-79
2022/09/26 05:10:04;;;;;;;;;0.00;0.00;;;;;;;;5107121;27;62177;-81
2022/09/26 05:12:34;;;;;;;;;1.00;0.00;;;;;;;;5104173;27;61740;-79
2022/09/26 05:15:00;;;;;;;;;0.00;0.00;;;;;;;;5104142;27;61740;-79
2022/09/26 05:17:31;;;;;;;;;0.00;0.00;;;;;;;;5104340;27;62040;-79
2022/09/26 05:19:57;;;;;;;;;1.00;0.00;;;;;;;;5104694;27;61842;-79
2022/09/26 05:22:22;;;;;;;;;0.50;0.00;;;;;;;;5103197;27;62315;-79
2022/09/26 05:27:31;;;;;;;;;0.00;0.00;;;;;;;;5103415;27;62408;-79
2022/09/26 05:29:56;;;;;;;;;2.50;0.50;;;;;;;;5103052;27;61994;-79
2022/09/26 05:32:21;;;;;;;;;1.00;0.00;;;;;;;;5101641;27;64251;-79
2022/09/26 05:34:47;;;;;;;;;0.50;0.50;;;;;;;;5104392;27;61732;-79
2022/09/26 05:37:13;;;;;;;;;0.75;0.75;;;;;;;;5104402;27;61908;-80
2022/09/26 05:42:22;;;;;;;;;0.00;0.00;;;;;;;;5102366;27;61951;-79
2022/09/26 05:44:47;;;;;;;;;0.75;0.75;;;;;;;;5100432;27;62254;-81
2022/09/26 05:47:12;;;;;;;;;0.50;0.50;;;;;;;;5102908;27;61994;-82
2022/09/26 05:49:38;;;;;;;;;0.00;0.00;;;;;;;;5102309;27;61804;-81
2022/09/26 05:52:03;;;;;;;;;0.00;0.00;;;;;;;;5101787;27;61853;-85
2022/09/26 05:54:28;;;;;;;;;0.75;0.75;;;;;;;;5102187;27;62259;-80
2022/09/26 05:56:55;;;;;;;;;0.00;0.00;;;;;;;;5099579;27;62280;-81
2022/09/26 05:59:21;;;;;;;;;0.00;0.00;;;;;;;;5101307;27;62158;-82
2022/09/26 06:01:47;;;;;;;;;0.25;0.25;;;;;;;;5100899;27;62938;-82
2022/09/26 06:04:13;;;;;;;;;1.50;1.00;;;;;;;;5100130;27;62534;-81
2022/09/26 06:06:38;;;;;;;;;1.25;0.00;;;;;;;;5102269;27;61719;-81
2022/09/26 06:09:05;;;;;;;;;0.75;0.00;;;;;;;;5102551;27;61852;-80
2022/09/26 06:11:31;;;;;;;;;0.00;0.00;;;;;;;;5101610;27;62578;-80
2022/09/26 06:13:58;;;;;;;;;4.50;0.00;;;;;;;;5101856;27;61876;-81
2022/09/26 06:16:23;;;;;;;;;1.00;1.00;;;;;;;;5102480;27;62090;-81
2022/09/26 06:18:50;;;;;;;;;0.25;0.00;;;;;;;;5101192;27;61866;-81
2022/09/26 06:21:16;;;;;;;;;0.00;0.00;;;;;;;;5101847;27;63243;-81
2022/09/26 06:23:42;;;;;;;;;1.00;0.00;;;;;;;;5101638;27;61793;-80
2022/09/26 06:26:11;;;;;;;;;1.00;1.00;;;;;;;;5101936;27;61722;-78
2022/09/26 06:28:37;;;;;;;;;0.00;0.00;;;;;;;;5102265;27;61981;-81
2022/09/26 06:31:10;;;;;;;;;0.00;0.00;;;;;;;;5101779;27;63161;-79
2022/09/26 06:33:36;;;;;;;;;0.00;0.00;;;;;;;;5101848;27;61855;-79
2022/09/26 06:36:06;;;;;;;;;0.00;0.00;;;;;;;;5105623;27;61724;-79
2022/09/26 06:38:31;;;;;;;;;0.00;0.00;;;;;;;;5104776;27;61768;-78
2022/09/26 06:40:57;;;;;;;;;0.00;0.00;;;;;;;;5100816;27;61764;-79
2022/09/26 06:43:22;;;;;;;;;0.00;0.00;;;;;;;;5101160;27;61845;-79
2022/09/26 06:45:50;;;;;;;;;0.00;0.00;;;;;;;;5100322;27;62353;-78
2022/09/26 06:48:16;;;;;;;;;1.50;0.00;;;;;;;;5101561;27;61798;-79
2022/09/26 06:50:42;;;;;;;;;4.50;0.75;;;;;;;;5100258;27;62629;-79
2022/09/26 06:53:07;;;;;;;;;0.00;0.00;;;;;;;;5100276;27;61777;-80
2022/09/26 06:55:32;;;;;;;;;1.00;0.00;;;;;;;;5100619;27;61713;-80
2022/09/26 06:57:57;;;;;;;;;0.00;0.00;;;;;;;;5100774;27;61769;-79
2022/09/26 07:00:23;;;;;;;;;0.00;0.00;;;;;;;;5099199;27;63731;-79
2022/09/26 07:02:52;;;;;;;;;0.00;0.00;;;;;;;;5101698;27;61847;-79
2022/09/26 07:05:18;;;;;;;;;0.00;0.00;;;;;;;;5101060;27;61875;-80
2022/09/26 07:07:45;;;;;;;;;1.00;1.00;;;;;;;;5101430;27;62038;-78
2022/09/26 07:10:11;;;;;;;;;0.00;0.00;;;;;;;;5101794;27;61836;-78
2022/09/26 07:12:39;;;;;;;;;1.00;1.00;;;;;;;;5100728;27;61921;-78
2022/09/26 07:15:05;;;;;;;;;2.00;0.00;;;;;;;;5103387;27;61770;-78
2022/09/26 07:17:30;;;;;;;;;0.00;0.00;;;;;;;;5105623;27;61845;-79
2022/09/26 07:19:56;;;;;;;;;3.50;1.00;;;;;;;;5104913;27;62958;-78
2022/09/26 07:22:21;;;;;;;;;0.00;0.00;;;;;;;;5105417;27;61783;-78
2022/09/26 07:24:47;;;;;;;;;1.50;1.00;;;;;;;;5105308;27;61737;-79
2022/09/26 07:27:13;;;;;;;;;0.00;0.00;;;;;;;;5105944;27;61875;-78
2022/09/26 07:29:38;;;;;;;;;0.00;0.00;;;;;;;;5104209;27;62945;-78
2022/09/26 07:32:03;;;;;;;;;1.50;1.50;;;;;;;;5105231;27;61705;-78
2022/09/26 07:34:30;;;;;;;;;0.00;0.00;;;;;;;;5105633;27;61709;-78
2022/09/26 07:36:56;;;;;;;;;1.00;0.50;;;;;;;;5105263;27;61967;-78
2022/09/26 07:39:21;;;;;;;;;2.25;0.75;;;;;;;;5104503;27;61881;-78
2022/09/26 07:41:48;;;;;;;;;1.75;1.00;;;;;;;;5105121;27;61900;-78
2022/09/26 07:44:14;;;;;;;;;1.25;0.50;;;;;;;;5104957;27;62089;-81
2022/09/26 07:52:07;;;;;;;;;2.00;1.00;;;;;;;;5104632;27;61717;-79
2022/09/26 07:54:34;;;;;;;;;1.25;1.00;;;;;;;;5104765;27;61734;-80
2022/09/26 07:56:59;;;;;;;;;2.00;1.00;;;;;;;;5103409;27;61823;-79
2022/09/26 07:59:25;;;;;;;;;5.00;4.00;;;;;;;;5103430;27;61839;-79
2022/09/26 08:01:51;;;;;;;;;1.00;0.00;;;;;;;;5103543;27;61880;-79
2022/09/26 08:04:17;;;;;;;;;3.00;2.00;;;;;;;;5105059;27;61859;-81
2022/09/26 08:06:43;;;;;;;;;1.75;1.75;;;;;;;;5105313;27;62160;-82
2022/09/26 08:09:08;;;;;;;;;0.50;0.25;;;;;;;;5104236;27;62518;-81
2022/09/26 08:11:34;;;;;;;;;1.75;1.75;;;;;;;;5103443;27;61800;-79
2022/09/26 08:14:00;;;;;;;;;1.25;0.75;;;;;;;;5104128;27;61783;-81
2022/09/26 08:16:26;;;;;;;;;1.00;1.00;;;;;;;;5105258;27;62193;-80
2022/09/26 08:18:52;;;;;;;;;2.50;2.50;;;;;;;;5103765;27;62079;-79
2022/09/26 08:21:17;;;;;;;;;1.00;1.00;;;;;;;;5104495;27;61915;-80
2022/09/26 08:23:43;;;;;;;;;0.75;0.75;;;;;;;;5104394;27;61682;-80
2022/09/26 08:26:08;;;;;;;;;2.00;2.00;;;;;;;;5103890;27;61703;-79
2022/09/26 08:28:34;;;;;;;;;3.25;3.25;;;;;;;;5102289;27;63565;-79
2022/09/26 08:31:01;;;;;;;;;1.50;1.50;;;;;;;;5102589;27;62220;-81
2022/09/26 08:33:27;;;;;;;;;1.00;1.00;;;;;;;;5103091;27;61929;-82
2022/09/26 08:35:52;;;;;;;;;2.00;2.00;;;;;;;;5104315;27;62007;-81
2022/09/26 08:38:17;;;;;;;;;0.00;0.00;;;;;;;;5103906;27;61781;-81
2022/09/26 08:40:54;;;;;;;;;1.00;1.00;;;;;;;;5103027;27;61967;-81
2022/09/26 08:43:19;;;;;;;;;2.00;2.00;;;;;;;;5104489;27;61745;-80
2022/09/26 08:48:38;;;;;;;;;2.00;2.00;;;;;;;;5103629;27;61842;-82
2022/09/26 08:51:23;;;;;;;;;0.00;0.00;;;;;;;;5103709;27;61961;-81
2022/09/26 08:53:58;;;;;;;;;1.00;1.00;;;;;;;;5104253;27;61744;-82
2022/09/26 08:56:30;;;;;;;;;0.50;0.50;;;;;;;;5104290;27;62026;-81
2022/09/26 08:58:57;;;;;;;;;1.75;0.25;;;;;;;;5102897;27;62084;-80
2022/09/26 09:01:27;;;;;;;;;3.00;3.00;;;;;;;;5103840;27;61820;-82
2022/09/26 09:04:13;;;;;;;;;1.00;1.00;;;;;;;;5103866;27;61951;-81
2022/09/26 09:06:38;;;;;;;;;0.00;0.00;;;;;;;;5104012;27;61801;-81
2022/09/26 09:09:04;;;;;;;;;1.25;1.00;;;;;;;;5103610;27;63093;-81
2022/09/26 09:11:32;;;;;;;;;1.75;1.75;;;;;;;;5104191;27;61734;-80
2022/09/26 09:14:36;;;;;;;;;1.25;1.00;;;;;;;;5103589;27;61788;-82
2022/09/26 09:17:01;;;;;;;;;0.00;0.00;;;;;;;;5063693;28;62089;-81
2022/09/26 09:19:37;;;;;;;;;1.75;0.50;;;;;;;;5080302;28;62066;-80
2022/09/26 09:22:21;;;;;;;;;1.00;1.00;;;;;;;;5063322;28;61968;-82
2022/09/26 09:24:49;;;;;;;;;2.25;1.50;;;;;;;;5080312;28;61821;-81
2022/09/26 09:27:20;;;;;;;;;2.75;0.50;;;;;;;;5080606;28;62046;-81
2022/09/26 09:29:46;;;;;;;;;1.00;1.00;;;;;;;;5079795;28;63078;-81
2022/09/26 09:32:15;;;;;;;;;2.00;1.00;;;;;;;;5080258;28;61862;-82
2022/09/26 09:34:41;;;;;;;;;1.00;1.00;;;;;;;;5063225;28;62088;-82
2022/09/26 09:37:39;;;;;;;;;0.50;0.50;;;;;;;;5081505;28;62512;-81
2022/09/26 09:40:06;;;;;;;;;1.25;1.00;;;;;;;;4998919;28;62106;-79
2022/09/26 09:42:44;;;;;;;;;2.00;1.00;;;;;;;;5000213;28;61828;-82
2022/09/26 09:45:22;;;;;;;;;0.00;0.00;;;;;;;;4999785;28;61758;-81
2022/09/26 09:47:48;;;;;;;;;0.75;0.00;;;;;;;;5020113;28;61844;-79
2022/09/26 09:50:15;;;;;;;;;1.00;1.00;;;;;;;;5022528;28;63683;-82
2022/09/26 09:52:43;;;;;;;;;0.50;0.50;;;;;;;;5040257;28;61854;-80
2022/09/26 09:55:14;;;;;;;;;1.00;1.00;;;;;;;;5039508;28;61973;-81
2022/09/26 09:57:43;;;;;;;;;2.00;1.00;;;;;;;;5023395;28;62241;-79
2022/09/26 10:00:08;;;;;;;;;4.50;1.00;;;;;;;;5052295;28;62108;-81
2022/09/26 10:02:49;;;;;;;;;2.00;2.00;;;;;;;;5051983;28;61790;-81
2022/09/26 10:05:32;;;;;;;;;1.00;1.00;;;;;;;;5039499;28;61925;-81
2022/09/26 10:07:58;;;;;;;;;1.00;1.00;;;;;;;;5039782;28;61871;-81
2022/09/26 10:10:35;;;;;;;;;1.00;1.00;;;;;;;;5039028;28;62950;-80
2022/09/26 10:13:01;;;;;;;;;2.00;1.00;;;;;;;;5040153;28;62095;-81
2022/09/26 10:15:26;;;;;;;;;0.75;0.75;;;;;;;;5064255;27;61926;-79
2022/09/26 10:17:59;;;;;;;;;0.00;0.00;;;;;;;;5101975;27;61920;-79
2022/09/26 10:20:33;;;;;;;;;0.00;0.00;;;;;;;;5102420;27;62102;-81
2022/09/26 10:23:00;;;;;;;;;0.00;0.00;;;;;;;;5103051;27;61809;-82
2022/09/26 10:25:25;;;;;;;;;1.00;1.00;;;;;;;;5102548;27;61703;-82
2022/09/26 10:27:55;;;;;;;;;1.50;0.00;;;;;;;;5102788;27;61850;-81
2022/09/26 10:30:24;;;;;;;;;0.00;0.00;;;;;;;;5100769;27;63751;-82
2022/09/26 10:32:52;;;;;;;;;1.00;0.00;;;;;;;;5102519;27;61702;-81
2022/09/26 10:35:24;;;;;;;;;1.50;1.00;;;;;;;;5102974;27;62090;-80
2022/09/26 10:38:07;;;;;;;;;2.00;1.00;;;;;;;;5103045;27;61703;-81
2022/09/26 10:40:44;;;;;;;;;2.25;0.75;;;;;;;;5102180;27;61860;-82
2022/09/26 10:43:22;;;;;;;;;0.00;0.00;;;;;;;;5102643;27;62099;-81
2022/09/26 10:45:48;;;;;;;;;2.50;1.00;;;;;;;;5102321;27;61950;-80
2022/09/26 10:48:20;;;;;;;;;0.00;0.00;;;;;;;;5102523;27;61850;-80
2022/09/26 10:50:49;;;;;;;;;3.00;1.00;;;;;;;;5104442;27;62006;-80
2022/09/26 10:53:16;;;;;;;;;1.00;1.00;;;;;;;;5105831;27;61805;-80
2022/09/26 10:55:45;;;;;;;;;1.00;1.00;;;;;;;;5105987;27;61954;-81
2022/09/26 10:58:28;;;;;;;;;1.50;1.50;;;;;;;;5106192;27;62002;-81
2022/09/26 11:00:56;;;;;;;;;1.00;1.00;;;;;;;;5104778;27;61917;-81
2022/09/26 11:03:43;;;;;;;;;2.00;1.00;;;;;;;;5104236;27;61952;-81
2022/09/26 11:06:27;;;;;;;;;1.00;1.00;;;;;;;;5105929;27;61819;-81
2022/09/26 11:08:56;;;;;;;;;0.25;0.25;;;;;;;;5106081;27;61938;-80
2022/09/26 11:11:22;;;;;;;;;1.00;1.00;;;;;;;;5105038;27;62081;-80
2022/09/26 11:14:06;;;;;;;;;1.00;1.00;;;;;;;;5105994;27;61856;-80
2022/09/26 11:16:43;;;;;;;;;0.25;0.25;;;;;;;;5105607;27;61749;-80
2022/09/26 11:19:27;;;;;;;;;6.75;3.25;;;;;;;;5105797;27;61730;-80
2022/09/26 11:21:58;;;;;;;;;1.50;1.50;;;;;;;;5104840;27;62960;-82
2022/09/26 11:24:36;;;;;;;;;1.25;1.25;;;;;;;;5104777;27;61874;-80
2022/09/26 11:27:20;;;;;;;;;1.75;0.75;;;;;;;;5105499;27;62002;-80
2022/09/26 11:29:54;;;;;;;;;1.50;1.50;;;;;;;;5105172;27;61819;-80
2022/09/26 11:32:37;;;;;;;;;1.75;1.00;;;;;;;;5105151;27;62180;-81
2022/09/26 11:35:03;;;;;;;;;2.00;2.00;;;;;;;;5105488;27;62087;-81
2022/09/26 11:37:38;;;;;;;;;5.00;2.00;;;;;;;;5105162;27;61741;-80
2022/09/26 11:40:16;;;;;;;;;1.50;1.00;;;;;;;;5105701;27;61995;-80
2022/09/26 11:42:44;;;;;;;;;0.00;0.00;;;;;;;;5104451;27;62128;-81
2022/09/26 11:45:24;;;;;;;;;3.00;2.50;;;;;;;;5105120;27;62524;-80
2022/09/26 11:47:57;;;;;;;;;3.00;2.00;;;;;;;;5105322;27;61774;-80
2022/09/26 11:50:38;;;;;;;;;2.25;1.75;;;;;;;;5105650;27;62052;-79
2022/09/26 11:53:06;;;;;;;;;2.50;1.50;;;;;;;;5104244;27;61918;-81
2022/09/26 11:55:52;;;;;;;;;1.25;1.25;;;;;;;;5104802;27;62003;-81
2022/09/26 11:58:37;;;;;;;;;1.00;1.00;;;;;;;;5104921;27;61892;-79
2022/09/26 12:01:06;;;;;;;;;1.00;1.00;;;;;;;;5083715;28;61960;-79
2022/09/26 12:03:35;;;;;;;;;1.00;1.00;;;;;;;;5083622;28;63083;-80
2022/09/26 12:06:18;;;;;;;;;2.25;1.00;;;;;;;;5084417;28;61852;-80
2022/09/26 12:08:59;;;;;;;;;3.00;1.50;;;;;;;;5083916;28;62107;-81
2022/09/26 12:11:36;;;;;;;;;2.25;1.50;;;;;;;;5084634;28;62132;-80
2022/09/26 12:14:11;;;;;;;;;11.50;5.75;;;;;;;;5083219;28;62660;-81
2022/09/26 12:16:45;;;;;;;;;3.50;1.00;;;;;;;;5084060;28;61706;-82
2022/09/26 12:19:13;;;;;;;;;3.50;2.00;;;;;;;;5084703;28;61779;-81
2022/09/26 12:21:39;;;;;;;;;2.00;1.00;;;;;;;;5084368;28;61745;-82
2022/09/26 12:24:26;;;;;;;;;3.25;2.00;;;;;;;;5083511;28;63081;-82
2022/09/26 12:26:57;;;;;;;;;3.25;2.25;;;;;;;;5084172;28;61944;-83
2022/09/26 12:29:42;;;;;;;;;3.00;3.00;;;;;;;;5084216;28;61791;-82
2022/09/26 12:32:07;;;;;;;;;7.50;2.50;;;;;;;;5083535;28;61799;-81
2022/09/26 12:34:36;;;;;;;;;4.25;2.00;;;;;;;;5083588;28;61835;-82
2022/09/26 12:37:14;;;;;;;;;3.25;2.00;;;;;;;;5084032;28;61832;-80
2022/09/26 12:39:57;;;;;;;;;1.00;1.00;;;;;;;;5083680;28;62063;-80
2022/09/26 12:42:41;;;;;;;;;3.50;2.00;;;;;;;;5082602;28;61893;-82
2022/09/26 12:45:21;;;;;;;;;4.25;2.75;;;;;;;;5083176;27;62063;-83
2022/09/26 12:48:07;;;;;;;;;8.00;4.00;;;;;;;;5083527;28;62061;-85
2022/09/26 12:50:40;;;;;;;;;4.00;4.00;;;;;;;;5084314;28;61817;-83
2022/09/26 12:53:18;;;;;;;;;2.50;2.50;;;;;;;;5082483;28;61717;-83
2022/09/26 12:55:58;;;;;;;;;1.00;1.00;;;;;;;;5082811;27;61769;-83
2022/09/26 12:58:32;;;;;;;;;2.25;1.00;;;;;;;;5083677;28;61746;-82
2022/09/26 13:01:10;;;;;;;;;3.00;2.00;;;;;;;;5083398;28;62284;-83
2022/09/26 13:03:48;;;;;;;;;1.00;1.00;;;;;;;;5082791;28;62110;-84
2022/09/26 13:06:31;;;;;;;;;1.00;1.00;;;;;;;;5083146;28;63327;-84
2022/09/26 13:09:00;;;;;;;;;1.50;1.00;;;;;;;;5083357;27;61952;-83
2022/09/26 13:11:27;;;;;;;;;1.00;1.00;;;;;;;;5083432;28;61884;-84
2022/09/26 13:13:53;;;;;;;;;0.25;0.00;;;;;;;;5083327;28;61816;-83
2022/09/26 13:16:24;;;;;;;;;0.50;0.50;;;;;;;;5082808;28;61777;-83
2022/09/26 13:18:54;;;;;;;;;2.00;2.00;;;;;;;;5083403;27;61859;-83
2022/09/26 13:21:23;;;;;;;;;2.50;2.00;;;;;;;;5083625;28;61907;-83
2022/09/26 13:23:56;;;;;;;;;3.00;1.00;;;;;;;;5082928;28;61748;-83
2022/09/26 13:26:24;;;;;;;;;1.50;0.25;;;;;;;;5082491;28;62131;-83
2022/09/26 13:29:02;;;;;;;;;1.50;0.00;;;;;;;;5081463;28;61826;-83
2022/09/26 13:31:54;;;;;;;;;1.75;1.00;;;;;;;;5083232;28;61889;-84
2022/09/26 13:34:26;;;;;;;;;0.00;0.00;;;;;;;;5094135;27;62241;-84
2022/09/26 13:36:52;;;;;;;;;1.00;1.00;;;;;;;;5084026;27;62400;-84
2022/09/26 13:39:29;;;;;;;;;0.75;0.00;;;;;;;;5103242;27;61883;-83
2022/09/26 13:42:02;;;;;;;;;5.75;4.00;;;;;;;;5103266;27;61824;-84
2022/09/26 13:44:43;;;;;;;;;11.00;6.00;;;;;;;;5103438;27;62026;-84
2022/09/26 13:47:21;;;;;;;;;7.00;7.00;;;;;;;;5101497;27;62934;-83
2022/09/26 13:50:02;;;;;;;;;2.00;0.50;;;;;;;;5103216;27;61935;-85
2022/09/26 13:52:51;;;;;;;;;1.00;1.00;;;;;;;;5101972;27;61912;-84
2022/09/26 13:55:18;;;;;;;;;0.50;0.50;;;;;;;;5103173;27;61745;-85
2022/09/26 13:57:46;;;;;;;;;2.00;0.25;;;;;;;;5102497;27;63084;-84
2022/09/26 14:00:30;;;;;;;;;0.00;0.00;;;;;;;;5102416;27;61679;-84
2022/09/26 14:03:17;;;;;;;;;3.00;1.00;;;;;;;;5102954;27;62008;-84
2022/09/26 14:05:42;;;;;;;;;0.00;0.00;;;;;;;;5103279;27;62038;-83
2022/09/26 14:11:10;;;;;;;;;1.00;0.00;;;;;;;;5102826;27;62093;-84
2022/09/26 14:13:36;;;;;;;;;0.00;0.00;;;;;;;;5101688;27;61917;-84
2022/09/26 14:16:03;;;;;;;;;0.00;0.00;;;;;;;;5101254;27;61765;-84
2022/09/26 14:18:47;;;;;;;;;0.00;0.00;;;;;;;;5102331;27;61945;-84
2022/09/26 14:21:32;;;;;;;;;1.00;1.00;;;;;;;;5102725;27;61946;-84
2022/09/26 14:24:16;;;;;;;;;0.00;0.00;;;;;;;;5102887;27;61943;-84
2022/09/26 14:26:42;;;;;;;;;0.00;0.00;;;;;;;;5109894;27;61955;-85
2022/09/26 14:29:23;;;;;;;;;0.00;0.00;;;;;;;;5108477;27;62009;-84
2022/09/26 14:32:04;;;;;;;;;0.25;0.25;;;;;;;;5109713;27;61841;-84
2022/09/26 14:34:34;;;;;;;;;0.00;0.00;;;;;;;;5108290;27;61934;-84
2022/09/26 14:37:01;;;;;;;;;0.00;0.00;;;;;;;;5108076;27;62351;-83
2022/09/26 14:39:32;;;;;;;;;0.00;0.00;;;;;;;;5108403;27;62851;-83
2022/09/26 14:41:58;;;;;;;;;0.75;0.25;;;;;;;;5109139;27;61689;-84
2022/09/26 14:44:27;;;;;;;;;2.00;0.00;;;;;;;;5108723;27;61937;-83
2022/09/26 14:46:53;;;;;;;;;0.00;0.00;;;;;;;;5108772;27;61953;-84
2022/09/26 14:49:23;;;;;;;;;1.00;1.00;;;;;;;;5107375;27;61879;-83
2022/09/26 14:51:50;;;;;;;;;1.00;1.00;;;;;;;;5106234;27;61733;-85
2022/09/26 14:54:22;;;;;;;;;0.00;0.00;;;;;;;;5106901;27;62054;-85
2022/09/26 14:56:49;;;;;;;;;0.00;0.00;;;;;;;;5105535;27;61896;-84
2022/09/26 14:59:15;;;;;;;;;0.00;0.00;;;;;;;;5106674;27;62010;-84
2022/09/26 15:01:41;;;;;;;;;0.00;0.00;;;;;;;;5107599;27;62006;-85
2022/09/26 15:04:14;;;;;;;;;0.50;0.50;;;;;;;;5107474;27;61854;-86
2022/09/26 15:06:44;;;;;;;;;0.00;0.00;;;;;;;;5106220;27;62126;-85
2022/09/26 15:09:11;;;;;;;;;0.00;0.00;;;;;;;;5106783;27;63729;-86
2022/09/26 15:11:43;;;;;;;;;0.00;0.00;;;;;;;;5107523;27;61933;-84
2022/09/26 15:14:31;;;;;;;;;0.00;0.00;;;;;;;;5104992;27;61843;-85
2022/09/26 15:16:59;;;;;;;;;0.00;0.00;;;;;;;;5104314;27;61812;-85
2022/09/26 15:19:34;;;;;;;;;1.25;0.25;;;;;;;;5106458;27;63001;-84